createdAt,value
2019-01-23T00:00:10.193Z,30.08
2019-01-23T00:05:17.819Z,30.45
2019-01-23T00:10:25.531Z,30.43
2019-01-23T00:15:33.188Z,32.55
2019-01-23T00:20:40.948Z,30.76
2019-01-23T00:25:48.628Z,31.13
2019-01-23T00:30:56.393Z,34.01
2019-01-23T00:36:04.056Z,31.56
2019-01-23T00:41:11.780Z,32.62
2019-01-23T00:46:19.476Z,32.23
2019-01-23T00:51:27.203Z,29.72
2019-01-23T00:56:34.859Z,31.37
2019-01-23T01:01:42.644Z,28.10
2019-01-23T01:06:50.372Z,30.80
2019-01-23T01:11:58.139Z,29.80
2019-01-23T01:17:05.835Z,32.70
2019-01-23T01:22:13.591Z,31.54
2019-01-23T01:27:21.247Z,30.87
2019-01-23T01:32:29.041Z,33.34
2019-01-23T01:37:36.736Z,29.05
2019-01-23T01:42:44.658Z,29.62
2019-01-23T01:47:52.399Z,31.44
2019-01-23T01:53:00.193Z,27.53
2019-01-23T01:58:10.186Z,29.26
2019-01-23T02:03:15.668Z,29.69
2019-01-23T02:08:22.476Z,30.54
2019-01-23T02:13:30.244Z,31.80
2019-01-23T02:18:37.929Z,31.64
2019-01-23T02:23:45.787Z,28.81
2019-01-23T02:28:53.565Z,29.89
2019-01-23T02:34:01.436Z,29.41
2019-01-23T02:39:09.115Z,27.95
2019-01-23T02:44:16.904Z,28.60
2019-01-23T02:49:24.617Z,28.26
2019-01-23T02:54:32.331Z,28.44
2019-01-23T02:59:40.059Z,28.73
2019-01-23T03:04:47.773Z,26.41
2019-01-23T03:09:55.449Z,25.80
2019-01-23T03:15:03.259Z,24.22
2019-01-23T03:20:11.062Z,27.76
2019-01-23T03:25:18.976Z,26.46
2019-01-23T03:30:26.668Z,27.72
2019-01-23T03:35:34.470Z,24.85
2019-01-23T03:40:42.194Z,27.60
2019-01-23T03:45:49.999Z,26.51
2019-01-23T03:50:57.720Z,25.37
2019-01-23T03:56:05.535Z,27.22
2019-01-23T04:01:13.202Z,27.07
2019-01-23T04:06:20.998Z,26.48
2019-01-23T04:11:28.648Z,27.90
2019-01-23T04:16:36.527Z,28.01
2019-01-23T04:21:44.329Z,27.44
2019-01-23T04:26:52.180Z,29.93
2019-01-23T04:31:59.863Z,27.37
2019-01-23T04:37:07.661Z,28.47
2019-01-23T04:42:15.498Z,26.63
2019-01-23T04:47:23.211Z,25.49
2019-01-23T04:52:30.867Z,27.34
2019-01-23T04:57:38.658Z,27.05
2019-01-23T05:02:46.380Z,27.25
2019-01-23T05:07:56.820Z,27.17
2019-01-23T05:12:54.694Z,26.06
2019-01-23T05:18:02.451Z,28.12
2019-01-23T05:23:10.177Z,26.95
2019-01-23T05:28:18.136Z,26.05
2019-01-23T05:33:25.851Z,28.41
2019-01-23T05:38:33.743Z,28.48
2019-01-23T05:43:41.420Z,28.81
2019-01-23T05:48:49.303Z,25.71
2019-01-23T05:53:56.980Z,27.77
2019-01-23T05:59:04.820Z,24.35
2019-01-23T06:04:12.540Z,27.29
2019-01-23T06:09:20.302Z,28.24
2019-01-23T06:14:28.061Z,23.57
2019-01-23T06:19:36.020Z,26.33
2019-01-23T06:24:43.729Z,26.07
2019-01-23T06:29:51.436Z,26.06
2019-01-23T06:34:59.110Z,27.38
2019-01-23T06:40:06.902Z,30.08
2019-01-23T06:45:14.569Z,29.85
2019-01-23T06:50:22.383Z,29.91
2019-01-23T06:55:30.061Z,28.96
2019-01-23T07:00:37.862Z,30.86
2019-01-23T07:05:45.580Z,33.79
2019-01-23T07:10:53.327Z,34.23
2019-01-23T07:16:01.122Z,31.77
2019-01-23T07:21:08.885Z,35.29
2019-01-23T07:26:16.587Z,32.38
2019-01-23T07:31:24.369Z,34.90
2019-01-23T07:36:32.091Z,33.98
2019-01-23T07:41:39.862Z,32.18
2019-01-23T07:46:47.581Z,32.29
2019-01-23T07:51:55.331Z,32.68
2019-01-23T07:57:03.021Z,31.73
2019-01-23T08:02:10.781Z,34.36
2019-01-23T08:07:18.512Z,33.74
2019-01-23T08:12:26.315Z,33.46
2019-01-23T08:17:33.899Z,33.44
2019-01-23T08:22:41.673Z,30.75
2019-01-23T08:27:49.416Z,32.33
2019-01-23T08:33:07.988Z,33.57
2019-01-23T08:38:08.180Z,32.79
2019-01-23T08:43:05.968Z,33.47
2019-01-23T08:48:13.599Z,33.40
2019-01-23T08:53:21.514Z,31.89
2019-01-23T08:58:29.229Z,34.64
2019-01-23T09:03:37.017Z,32.04
2019-01-23T09:08:44.771Z,29.27
2019-01-23T09:13:52.505Z,30.96
2019-01-23T09:19:00.371Z,30.48
2019-01-23T09:24:08.229Z,33.08
2019-01-23T09:29:15.970Z,34.36
2019-01-23T09:34:23.767Z,33.71
2019-01-23T09:39:31.534Z,33.11
2019-01-23T09:44:39.277Z,33.51
2019-01-23T09:49:46.972Z,30.52
2019-01-23T09:54:54.770Z,30.81
2019-01-23T10:00:02.507Z,31.01
2019-01-23T10:05:10.386Z,31.12
2019-01-23T10:10:18.093Z,27.74
2019-01-23T10:15:25.891Z,29.37
2019-01-23T10:20:33.616Z,29.69
2019-01-23T10:25:41.489Z,31.76
2019-01-23T10:30:49.133Z,31.19
2019-01-23T10:35:56.995Z,29.46
2019-01-23T10:41:04.705Z,30.80
2019-01-23T10:46:12.554Z,33.28
2019-01-23T10:51:20.212Z,32.23
2019-01-23T10:56:27.963Z,31.89
2019-01-23T11:01:35.615Z,29.37
2019-01-23T11:06:43.467Z,30.24
2019-01-23T11:11:51.166Z,31.35
2019-01-23T11:16:58.952Z,31.05
2019-01-23T11:22:06.638Z,28.69
2019-01-23T11:27:14.582Z,28.79
2019-01-23T11:32:22.288Z,28.60
2019-01-23T11:37:30.157Z,29.05
2019-01-23T11:42:37.937Z,32.04
2019-01-23T11:47:45.799Z,32.88
2019-01-23T11:52:53.361Z,31.96
2019-01-23T11:58:01.175Z,31.59
2019-01-23T12:03:08.888Z,29.52
2019-01-23T12:08:16.814Z,29.89
2019-01-23T12:13:24.511Z,29.62
2019-01-23T12:18:38.232Z,29.80
2019-01-23T12:23:35.935Z,28.06
2019-01-23T12:28:43.812Z,31.09
2019-01-23T12:33:51.519Z,33.13
2019-01-23T12:38:59.428Z,32.89
2019-01-23T12:44:07.107Z,35.48
2019-01-23T12:49:15.174Z,33.72
2019-01-23T12:54:22.941Z,34.13
2019-01-23T12:59:30.673Z,32.93
2019-01-23T13:04:38.377Z,34.41
2019-01-23T13:09:46.119Z,36.48
2019-01-23T13:14:53.825Z,34.16
2019-01-23T13:20:01.558Z,32.34
2019-01-23T13:25:09.285Z,32.06
2019-01-23T13:30:17.045Z,31.11
2019-01-23T13:35:24.745Z,28.65
2019-01-23T13:40:32.472Z,29.34
2019-01-23T13:45:41.722Z,31.59
2019-01-23T13:50:47.410Z,33.80
2019-01-23T13:55:55.139Z,35.20
2019-01-23T14:01:02.984Z,33.53
2019-01-23T14:06:10.721Z,34.78
2019-01-23T14:11:18.516Z,35.68
2019-01-23T14:16:26.229Z,34.43
2019-01-23T14:21:34.375Z,31.54
2019-01-23T14:26:42.047Z,32.46
2019-01-23T14:31:49.890Z,30.75
2019-01-23T14:36:57.598Z,30.43
2019-01-23T14:42:14.009Z,28.63
2019-01-23T14:47:11.738Z,30.54
2019-01-23T14:52:19.546Z,27.57
2019-01-23T14:57:34.561Z,25.16
2019-01-23T15:02:33.963Z,25.34
2019-01-23T15:07:43.375Z,26.60
2019-01-23T15:12:51.205Z,29.81
2019-01-23T15:17:58.937Z,31.50
2019-01-23T15:23:06.735Z,29.94
2019-01-23T15:28:14.485Z,29.95
2019-01-23T15:33:22.353Z,33.01
2019-01-23T15:38:30.062Z,31.54
2019-01-23T15:43:37.821Z,32.91
2019-01-23T15:48:45.511Z,32.60
2019-01-23T15:53:53.313Z,33.66
2019-01-23T15:59:01.017Z,31.67
2019-01-23T16:04:09.058Z,36.91
2019-01-23T16:09:16.756Z,36.13
2019-01-23T16:14:49.429Z,38.35
2019-01-23T16:19:27.075Z,36.58
2019-01-23T16:24:34.843Z,37.66
2019-01-23T16:29:42.511Z,41.47
2019-01-23T16:34:50.376Z,45.51
2019-01-23T16:39:58.089Z,45.35
2019-01-23T16:45:05.878Z,48.03
2019-01-23T16:50:13.562Z,39.31
2019-01-23T16:55:21.443Z,43.00
2019-01-23T17:00:29.168Z,41.61
2019-01-23T17:05:37.011Z,46.23
2019-01-23T17:10:44.719Z,47.34
2019-01-23T17:15:52.446Z,42.24
2019-01-23T17:21:00.158Z,45.56
2019-01-23T17:26:07.966Z,40.69
2019-01-23T17:31:15.677Z,40.97
2019-01-23T17:36:23.552Z,44.50
2019-01-23T17:41:31.283Z,41.78
2019-01-23T17:46:39.081Z,47.90
2019-01-23T17:51:46.807Z,46.54
2019-01-23T17:56:54.888Z,46.17
2019-01-23T18:02:01.775Z,44.44
2019-01-23T18:07:09.576Z,38.06
2019-01-23T18:12:17.303Z,41.96
2019-01-23T18:17:25.195Z,43.89
2019-01-23T18:22:32.843Z,41.80
2019-01-23T18:27:40.703Z,40.26
2019-01-23T18:32:48.421Z,44.66
2019-01-23T18:37:56.367Z,42.41
2019-01-23T18:43:04.116Z,41.03
2019-01-23T18:48:12.031Z,42.19
2019-01-23T18:53:19.728Z,39.57
2019-01-23T18:58:27.489Z,36.21
2019-01-23T19:03:35.206Z,41.73
2019-01-23T19:08:42.999Z,36.31
2019-01-23T19:13:50.666Z,38.12
2019-01-23T19:18:58.486Z,34.87
2019-01-23T19:24:06.153Z,32.85
2019-01-23T19:29:13.968Z,37.58
2019-01-23T19:34:21.752Z,32.62
2019-01-23T19:39:29.501Z,38.62
2019-01-23T19:44:37.245Z,37.14
2019-01-23T19:49:45.098Z,34.61
2019-01-23T19:54:52.909Z,35.93
2019-01-23T20:00:00.769Z,36.61
2019-01-23T20:05:08.475Z,32.45
2019-01-23T20:10:17.193Z,35.58
2019-01-23T20:15:23.499Z,33.92
2019-01-23T20:20:31.408Z,35.57
2019-01-23T20:25:39.144Z,35.50
2019-01-23T20:30:47.005Z,38.48
2019-01-23T20:35:54.778Z,36.67
2019-01-23T20:41:02.649Z,35.33
2019-01-23T20:46:10.332Z,36.54
2019-01-23T20:51:18.061Z,33.82
2019-01-23T20:56:25.829Z,38.83
2019-01-23T21:01:33.641Z,34.52
2019-01-23T21:06:41.340Z,33.06
2019-01-23T21:11:49.309Z,35.11
2019-01-23T21:16:57.486Z,37.21
2019-01-23T21:22:04.675Z,35.43
2019-01-23T21:27:11.446Z,35.50
2019-01-23T21:32:19.176Z,39.02
2019-01-23T21:37:26.921Z,34.31
2019-01-23T21:42:34.652Z,34.01
2019-01-23T21:47:42.469Z,37.00
2019-01-23T21:52:50.213Z,37.93
2019-01-23T21:57:57.965Z,39.78
2019-01-23T22:03:05.738Z,39.12
2019-01-23T22:08:13.472Z,34.46
2019-01-23T22:13:21.340Z,36.69
2019-01-23T22:18:29.139Z,37.26
2019-01-23T22:23:36.865Z,37.93
2019-01-23T22:28:44.512Z,36.54
2019-01-23T22:33:56.168Z,39.82
2019-01-23T22:38:59.764Z,36.59
2019-01-23T22:44:07.489Z,36.76
2019-01-23T22:49:15.165Z,36.38
2019-01-23T22:54:22.873Z,38.88
2019-01-23T22:59:30.508Z,37.19
2019-01-23T23:04:38.244Z,37.67
2019-01-23T23:09:45.924Z,37.37
2019-01-23T23:14:53.818Z,38.60
2019-01-23T23:20:01.543Z,38.31
2019-01-23T23:25:09.478Z,39.22
2019-01-23T23:30:17.187Z,37.63
2019-01-23T23:35:25.063Z,39.59
2019-01-23T23:40:32.788Z,36.64
2019-01-23T23:45:40.551Z,40.10
2019-01-23T23:50:48.235Z,37.47
2019-01-23T23:55:55.953Z,38.41
